Time;durP1;ratioP1;P1;durP2;ratioP2;P2;SDS_P1;SDS_P2;PMS_P1;PMS_P2;Temp;Humidity;BMP_temperature;BMP_pressure;BME280_temperature;BME280_humidity;BME280_pressure;Samples;Min_cycle;Max_cycle;Signal;HPM_P1;HPM_P2
2022/11/26 00:01:21;;;;;;;76.85;42.03;;;;;;;2.17;84.66;97696.55;1542081;93;25846;-72
2022/11/26 00:03:48;;;;;;;71.17;41.05;;;;;;;2.16;84.64;97694.38;1542200;93;26013;-71
2022/11/26 00:06:38;;;;;;;71.40;40.83;;;;;;;2.17;84.64;97695.22;1525274;92;25859;-72
2022/11/26 00:09:14;;;;;;;74.27;44.63;;;;;;;2.21;84.68;97702.39;1510593;92;28098;-72
2022/11/26 00:11:42;;;;;;;76.45;44.45;;;;;;;2.23;84.70;97709.24;1533761;92;25869;-71
2022/11/26 00:14:16;;;;;;;66.20;41.90;;;;;;;2.25;84.67;97713.93;1520552;93;25802;-72
2022/11/26 00:16:43;;;;;;;72.45;43.98;;;;;;;2.25;84.62;97708.60;1516462;91;26119;-72
2022/11/26 00:19:10;;;;;;;68.02;41.48;;;;;;;2.20;84.49;97710.03;1568208;90;25813;-74
2022/11/26 00:21:39;;;;;;;73.15;42.15;;;;;;;2.17;84.50;97709.87;1568041;90;27075;-73
2022/11/26 00:24:25;;;;;;;77.27;44.80;;;;;;;2.18;84.53;97716.84;1577966;88;25871;-75
2022/11/26 00:26:53;;;;;;;77.75;45.78;;;;;;;2.18;84.56;97711.52;1608138;87;25451;-72
2022/11/26 00:29:19;;;;;;;77.85;44.70;;;;;;;2.17;84.58;97715.19;1571658;91;26055;-70
2022/11/26 00:31:46;;;;;;;77.90;44.93;;;;;;;2.14;84.55;97716.81;1574301;88;25823;-70
2022/11/26 00:34:12;;;;;;;81.28;47.30;;;;;;;2.14;84.62;97722.98;1641198;86;27354;-72
2022/11/26 00:36:41;;;;;;;81.60;46.33;;;;;;;2.12;84.59;97716.13;1657920;86;25689;-71
2022/11/26 00:39:13;;;;;;;74.75;46.63;;;;;;;2.12;84.64;97721.45;1658077;86;25808;-72
2022/11/26 00:41:39;;;;;;;76.90;45.85;;;;;;;2.15;84.68;97723.82;1580653;89;26988;-72
2022/11/26 00:44:19;;;;;;;70.47;43.95;;;;;;;2.17;84.67;97722.66;1588730;89;25808;-71
2022/11/26 00:46:47;;;;;;;73.60;44.65;;;;;;;2.16;84.62;97722.84;1582141;89;27472;-72
2022/11/26 00:49:14;;;;;;;74.25;46.42;;;;;;;2.16;84.65;97722.84;1568538;89;25966;-70
2022/11/26 00:51:42;;;;;;;76.85;46.95;;;;;;;2.19;84.68;97727.84;1568700;89;25852;-74
2022/11/26 00:54:13;;;;;;;84.28;47.55;;;;;;;2.20;84.67;97730.84;1568652;89;26561;-74
2022/11/26 00:56:40;;;;;;;88.52;48.00;;;;;;;2.21;84.64;97728.53;1568851;89;25791;-73
2022/11/26 00:59:12;;;;;;;85.77;47.75;;;;;;;2.22;84.62;97730.20;1568701;89;28217;-72
2022/11/26 01:01:38;;;;;;;83.58;46.45;;;;;;;2.23;84.64;97726.55;1568798;89;25340;-72
2022/11/26 01:04:05;;;;;;;89.83;47.40;;;;;;;2.24;84.66;97724.23;1568663;89;25888;-72
2022/11/26 01:06:38;;;;;;;85.07;48.02;;;;;;;2.26;84.65;97725.42;1568749;89;25946;-73
2022/11/26 01:09:08;;;;;;;79.58;47.03;;;;;;;2.23;84.62;97727.05;1601247;87;25587;-71
2022/11/26 01:11:35;;;;;;;82.55;45.73;;;;;;;2.23;84.62;97727.89;1611290;87;27416;-71
2022/11/26 01:14:04;;;;;;;73.72;44.08;;;;;;;2.24;84.64;97724.23;1611159;87;25804;-74
2022/11/26 01:16:38;;;;;;;73.65;41.95;;;;;;;2.23;84.52;97729.22;1611152;87;25827;-71
2022/11/26 01:19:07;;;;;;;77.30;42.50;;;;;;;2.21;84.43;97741.84;1645806;83;26203;-72
2022/11/26 01:21:33;;;;;;;79.12;44.53;;;;;;;2.18;84.37;97738.14;1692668;83;26742;-73
2022/11/26 01:24:00;;;;;;;81.63;43.40;;;;;;;2.16;84.35;97741.48;1715812;81;28047;-72
2022/11/26 01:26:34;;;;;;;81.17;44.60;;;;;;;2.16;84.39;97746.80;1741419;81;25727;-72
2022/11/26 01:29:00;;;;;;;76.70;42.40;;;;;;;2.16;84.44;97744.98;1708026;81;25764;-72
2022/11/26 01:31:29;;;;;;;73.47;42.58;;;;;;;2.12;84.30;97748.08;1726578;81;25992;-73
2022/11/26 01:33:56;;;;;;;88.75;44.93;;;;;;;2.08;84.26;97748.03;1734783;82;25712;-73
2022/11/26 01:36:34;;;;;;;76.95;40.45;;;;;;;2.07;84.36;97749.02;1723837;80;27348;-71
2022/11/26 01:39:14;;;;;;;80.30;42.35;;;;;;;2.07;84.36;97757.84;1616908;87;25562;-72
2022/11/26 01:42:22;;;;;;;83.70;43.35;;;;;;;2.07;84.31;97759.66;1608072;87;25929;-75
2022/11/26 01:44:48;;;;;;;76.00;42.58;;;;;;;2.03;84.29;97759.64;1614230;87;26008;-71
2022/11/26 01:47:28;;;;;;;80.72;43.33;;;;;;;2.04;84.35;97758.66;1620916;87;25899;-72
2022/11/26 01:50:29;;;;;;;75.03;40.90;;;;;;;2.06;84.40;97759.32;1614953;87;28197;-71
2022/11/26 01:53:12;;;;;;;60.50;33.65;;;;;;;2.06;84.34;97759.32;1631170;87;25738;-73
2022/11/26 01:55:46;;;;;;;66.12;37.33;;;;;;;2.05;84.34;97757.67;1628399;87;25834;-72
2022/11/26 01:58:18;;;;;;;76.00;42.13;;;;;;;2.02;84.27;97760.63;1578350;89;26004;-71
2022/11/26 02:00:48;;;;;;;79.50;44.13;;;;;;;2.01;84.34;97762.94;1575001;89;25876;-72
2022/11/26 02:03:14;;;;;;;83.20;46.08;;;;;;;2.02;84.36;97761.95;1574962;89;27482;-72
2022/11/26 02:05:49;;;;;;;82.40;45.05;;;;;;;2.02;84.40;97757.97;1574857;89;25463;-72
2022/11/26 02:08:15;;;;;;;82.30;43.85;;;;;;;2.01;84.37;97760.28;1572875;89;25635;-72
2022/11/26 02:10:42;;;;;;;81.55;44.93;;;;;;;1.99;84.32;97760.91;1575023;89;27023;-72
2022/11/26 02:13:08;;;;;;;72.22;40.67;;;;;;;1.94;84.28;97760.52;1574879;89;25495;-74
2022/11/26 02:15:43;;;;;;;67.50;39.58;;;;;;;1.93;84.35;97766.36;1574875;89;27451;-74
2022/11/26 02:18:10;;;;;;;65.65;35.68;;;;;;;1.93;84.35;97762.86;1526035;92;25870;-72
2022/11/26 02:21:00;;;;;;;59.45;36.75;;;;;;;1.90;84.26;97773.80;1526072;92;25377;-72
2022/11/26 02:24:06;;;;;;;59.55;35.45;;;;;;;1.86;84.28;97768.41;1525765;92;26242;-71
2022/11/26 02:27:08;;;;;;;53.13;33.10;;;;;;;1.81;84.35;97768.35;1533279;92;25456;-72
2022/11/26 02:30:05;;;;;;;46.83;27.25;;;;;;;1.84;84.46;97774.38;1526603;92;27473;-72
2022/11/26 02:32:40;;;;;;;49.13;28.73;;;;;;;1.84;84.49;97771.22;1525854;92;25865;-73
2022/11/26 02:35:24;;;;;;;46.13;30.52;;;;;;;1.85;84.48;97768.06;1528796;92;25864;-71
2022/11/26 02:38:10;;;;;;;58.13;34.08;;;;;;;1.81;84.43;97772.87;1532917;93;27024;-72
2022/11/26 02:40:37;;;;;;;60.40;36.25;;;;;;;1.78;84.48;97775.81;1540463;92;25598;-72
2022/11/26 02:43:03;;;;;;;63.28;37.48;;;;;;;1.80;84.66;97776.52;1543126;91;27390;-71
2022/11/26 02:45:37;;;;;;;60.70;40.50;;;;;;;1.83;84.67;97774.02;1543242;91;26372;-72
2022/11/26 02:48:09;;;;;;;63.80;39.55;;;;;;;1.79;84.68;97773.02;1557855;90;25336;-74
2022/11/26 02:50:46;;;;;;;64.82;38.33;;;;;;;1.82;84.75;97774.52;1519369;92;26207;-72
2022/11/26 02:53:17;;;;;;;66.57;39.08;;;;;;;1.85;84.82;97767.57;1524650;93;25379;-74
2022/11/26 02:55:48;;;;;;;59.58;36.53;;;;;;;1.87;84.82;97772.27;1572060;86;27538;-71
2022/11/26 02:58:17;;;;;;;69.03;37.93;;;;;;;1.90;84.85;97776.45;1580006;89;25782;-72
2022/11/26 03:00:46;;;;;;;62.10;35.88;;;;;;;1.91;84.88;97776.31;1562503;90;25850;-74
2022/11/26 03:03:26;;;;;;;52.62;32.80;;;;;;;1.92;84.85;97775.33;1586170;89;26019;-71
2022/11/26 03:05:57;;;;;;;51.73;33.60;;;;;;;1.89;84.89;97776.95;1603991;88;25807;-74
2022/11/26 03:08:25;;;;;;;51.83;33.70;;;;;;;1.94;84.96;97773.82;1604658;87;27457;-70
2022/11/26 03:10:52;;;;;;;47.25;30.27;;;;;;;1.97;84.90;97774.86;1621343;88;25843;-72
2022/11/26 03:13:19;;;;;;;47.43;29.02;;;;;;;2.00;84.93;97778.57;1625869;87;25922;-73
2022/11/26 03:15:45;;;;;;;49.18;28.25;;;;;;;2.03;84.89;97780.45;1612111;86;25901;-71
2022/11/26 03:18:12;;;;;;;41.28;27.40;;;;;;;2.01;84.75;97779.75;1643216;87;25476;-72
2022/11/26 03:20:39;;;;;;;41.92;25.17;;;;;;;2.01;84.73;97788.23;1661495;85;27369;-71
2022/11/26 03:23:05;;;;;;;35.28;24.10;;;;;;;1.98;84.65;97787.19;1645444;85;25495;-74
2022/11/26 03:25:33;;;;;;;41.75;25.02;;;;;;;1.95;84.61;97783.48;1626763;88;25815;-74
2022/11/26 03:27:59;;;;;;;44.08;25.45;;;;;;;1.94;84.66;97783.14;1655325;86;26006;-72
2022/11/26 03:30:26;;;;;;;41.75;25.80;;;;;;;1.96;84.70;97786.50;1661383;85;25818;-71
2022/11/26 03:32:53;;;;;;;38.65;25.10;;;;;;;1.93;84.68;97781.00;1693709;82;27361;-74
2022/11/26 03:35:19;;;;;;;39.55;24.65;;;;;;;1.96;84.73;97779.84;1710147;82;25486;-72
2022/11/26 03:37:46;;;;;;;41.42;25.37;;;;;;;1.97;84.74;97785.52;1716231;82;25744;-72
2022/11/26 03:40:15;;;;;;;38.15;23.18;;;;;;;1.97;84.75;97783.69;1737443;82;26034;-74
2022/11/26 03:42:43;;;;;;;38.02;23.73;;;;;;;2.00;84.77;97783.41;1729169;82;25916;-73
2022/11/26 03:45:11;;;;;;;39.42;25.40;;;;;;;2.00;84.71;97793.21;1725264;82;27351;-74
2022/11/26 03:47:38;;;;;;;37.78;23.95;;;;;;;2.01;84.74;97785.58;1735530;82;25704;-71
2022/11/26 03:50:06;;;;;;;33.15;23.00;;;;;;;2.03;84.77;97784.94;1734981;82;25726;-72
2022/11/26 03:52:33;;;;;;;37.48;23.83;;;;;;;2.03;84.72;97788.93;1723879;82;26038;-72
2022/11/26 03:55:00;;;;;;;33.83;22.62;;;;;;;2.05;84.68;97801.61;1727377;82;25873;-72
2022/11/26 03:57:26;;;;;;;33.95;22.48;;;;;;;2.02;84.60;97794.75;1736090;82;27369;-72
2022/11/26 03:59:53;;;;;;;37.40;23.52;;;;;;;2.04;84.64;97798.59;1715274;82;25650;-72
2022/11/26 04:02:20;;;;;;;37.95;22.40;;;;;;;2.05;84.72;97796.28;1736181;82;25229;-71
2022/11/26 04:04:46;;;;;;;30.02;20.40;;;;;;;2.06;84.69;97806.76;1727508;82;26629;-74
2022/11/26 04:07:13;;;;;;;33.55;21.82;;;;;;;2.02;84.61;97801.90;1724907;82;26061;-73
2022/11/26 04:09:39;;;;;;;32.45;22.55;;;;;;;2.01;84.71;97807.72;1736299;82;27453;-74
2022/11/26 04:12:06;;;;;;;32.48;21.62;;;;;;;2.06;84.86;97809.42;1732412;82;25864;-72
2022/11/26 04:14:33;;;;;;;33.58;21.37;;;;;;;2.07;84.92;97804.44;1718435;82;25278;-72
2022/11/26 04:16:59;;;;;;;35.88;21.75;;;;;;;2.10;84.92;97800.66;1730012;82;25975;-72
2022/11/26 04:19:26;;;;;;;36.05;21.73;;;;;;;2.14;84.93;97802.88;1741951;82;25749;-72
2022/11/26 04:21:52;;;;;;;33.60;21.30;;;;;;;2.12;84.80;97798.69;1727298;82;27398;-72
2022/11/26 04:24:19;;;;;;;36.08;21.42;;;;;;;2.13;84.85;97801.69;1744765;82;25673;-72
2022/11/26 04:26:46;;;;;;;30.57;20.17;;;;;;;2.15;84.82;97801.05;1735625;82;25789;-74
2022/11/26 04:29:12;;;;;;;31.42;20.52;;;;;;;2.15;84.77;97802.39;1733557;82;25434;-72
2022/11/26 04:31:39;;;;;;;33.20;20.62;;;;;;;2.13;84.71;97811.02;1717421;82;25756;-72
2022/11/26 04:34:05;;;;;;;32.55;21.02;;;;;;;2.14;84.78;97811.36;1714910;82;27474;-75
2022/11/26 04:36:32;;;;;;;35.80;22.25;;;;;;;2.15;84.77;97811.70;1736116;82;25794;-72
2022/11/26 04:38:58;;;;;;;37.20;21.65;;;;;;;2.14;84.69;97819.34;1715191;82;25740;-72
2022/11/26 04:41:25;;;;;;;34.30;21.33;;;;;;;2.10;84.67;97816.62;1716370;82;26197;-73
2022/11/26 04:43:51;;;;;;;30.62;19.17;;;;;;;2.11;84.73;97818.31;1734628;82;25937;-71
2022/11/26 04:46:18;;;;;;;26.05;16.82;;;;;;;2.10;84.75;97817.95;1734765;82;28134;-72
2022/11/26 04:48:44;;;;;;;28.35;18.27;;;;;;;2.07;84.67;97830.23;1723584;82;25893;-72
2022/11/26 04:51:11;;;;;;;27.20;17.02;;;;;;;2.04;84.73;97827.89;1744563;82;25767;-74
2022/11/26 04:53:38;;;;;;;26.23;17.23;;;;;;;2.07;84.79;97831.56;1718992;82;26749;-72
2022/11/26 04:56:05;;;;;;;28.47;17.35;;;;;;;2.08;84.74;97839.90;1729450;82;25468;-72
2022/11/26 04:58:32;;;;;;;28.67;16.60;;;;;;;2.08;84.71;97839.90;1742479;82;28341;-72
2022/11/26 05:00:58;;;;;;;28.00;17.25;;;;;;;2.09;84.70;97846.91;1726719;82;26025;-72
2022/11/26 05:03:25;;;;;;;25.57;16.65;;;;;;;2.08;84.69;97845.22;1724005;82;25483;-74
2022/11/26 05:05:51;;;;;;;30.90;18.42;;;;;;;2.09;84.69;97842.42;1735964;82;26226;-72
2022/11/26 05:08:18;;;;;;;30.00;19.75;;;;;;;2.09;84.64;97849.56;1727520;82;25764;-72
2022/11/26 05:10:44;;;;;;;32.17;19.62;;;;;;;2.05;84.60;97842.36;1744347;82;28163;-75
2022/11/26 05:13:11;;;;;;;34.70;21.85;;;;;;;2.05;84.60;97853.01;1724842;82;25878;-75
2022/11/26 05:15:37;;;;;;;36.85;23.40;;;;;;;2.06;84.61;97849.86;1726014;82;25784;-72
2022/11/26 05:18:04;;;;;;;40.73;25.50;;;;;;;2.04;84.58;97854.03;1722110;82;25965;-71
2022/11/26 05:20:32;;;;;;;50.45;27.65;;;;;;;1.99;84.54;97852.77;1744620;82;43881;-73
2022/11/26 05:22:58;;;;;;;43.38;26.65;;;;;;;1.97;84.57;97853.41;1744696;82;28240;-72
2022/11/26 05:25:25;;;;;;;42.90;26.20;;;;;;;1.93;84.65;97854.22;1744590;82;25882;-71
2022/11/26 05:27:51;;;;;;;44.50;27.60;;;;;;;1.93;84.71;97856.88;1743056;82;25728;-72
2022/11/26 05:30:18;;;;;;;45.05;27.27;;;;;;;1.94;84.78;97853.69;1715200;82;26228;-72
2022/11/26 05:32:45;;;;;;;41.80;26.02;;;;;;;1.95;84.75;97855.38;1735175;82;25440;-72
2022/11/26 05:35:11;;;;;;;45.75;28.02;;;;;;;1.96;84.74;97857.89;1715582;82;27370;-72
2022/11/26 05:37:38;;;;;;;42.60;28.17;;;;;;;1.96;84.69;97862.38;1732567;82;25219;-72
2022/11/26 05:40:07;;;;;;;45.25;27.52;;;;;;;1.95;84.68;97861.53;1724067;82;25768;-72
2022/11/26 05:42:34;;;;;;;39.55;27.00;;;;;;;1.94;84.65;97858.52;1729415;82;25997;-75
2022/11/26 05:45:00;;;;;;;43.20;27.48;;;;;;;1.95;84.63;97868.19;1736163;82;25684;-72
2022/11/26 05:47:27;;;;;;;42.83;25.75;;;;;;;1.95;84.61;97869.52;1728053;82;27423;-71
2022/11/26 05:49:53;;;;;;;39.33;25.48;;;;;;;1.95;84.61;97868.69;1722847;82;25671;-71
2022/11/26 05:52:20;;;;;;;37.98;23.30;;;;;;;1.96;84.63;97869.03;1715241;82;25753;-72
2022/11/26 05:54:47;;;;;;;36.25;23.75;;;;;;;1.98;84.63;97871.06;1734555;82;26057;-72
2022/11/26 05:57:13;;;;;;;47.65;25.60;;;;;;;1.94;84.49;97869.67;1724047;82;25773;-71
2022/11/26 05:59:40;;;;;;;42.67;25.82;;;;;;;1.92;84.51;97879.66;1728483;82;28206;-72
2022/11/26 06:02:07;;;;;;;38.10;23.85;;;;;;;1.90;84.51;97879.80;1740938;82;25590;-71
2022/11/26 06:04:33;;;;;;;42.03;23.83;;;;;;;1.85;84.46;97875.88;1731028;82;25702;-72
2022/11/26 06:07:00;;;;;;;37.10;22.35;;;;;;;1.83;84.50;97877.84;1721124;82;26622;-73
2022/11/26 06:09:26;;;;;;;39.73;23.35;;;;;;;1.84;84.61;97880.84;1714976;82;25779;-74
2022/11/26 06:11:55;;;;;;;41.35;24.25;;;;;;;1.87;84.70;97884.56;1729783;82;28324;-71
2022/11/26 06:14:21;;;;;;;43.40;25.95;;;;;;;1.90;84.70;97889.60;1744928;82;25621;-72
2022/11/26 06:16:48;;;;;;;43.42;26.12;;;;;;;1.92;84.70;97891.14;1732767;82;25784;-72
2022/11/26 06:19:15;;;;;;;45.28;25.05;;;;;;;1.90;84.64;97893.11;1736199;82;26246;-73
2022/11/26 06:21:41;;;;;;;40.92;25.40;;;;;;;1.93;84.65;97898.14;1724838;82;25677;-71
2022/11/26 06:24:08;;;;;;;43.05;25.65;;;;;;;1.94;84.67;97901.61;1745030;82;27420;-70
2022/11/26 06:26:34;;;;;;;43.38;26.97;;;;;;;1.95;84.73;97897.97;1717010;82;25873;-71
2022/11/26 06:29:01;;;;;;;53.50;28.62;;;;;;;1.96;84.70;97901.83;1731476;82;25202;-73
2022/11/26 06:31:28;;;;;;;48.17;28.77;;;;;;;1.92;84.67;97903.12;1724190;82;25974;-72
2022/11/26 06:33:55;;;;;;;48.55;28.73;;;;;;;1.94;84.76;97905.12;1731515;82;25752;-74
2022/11/26 06:36:22;;;;;;;48.17;29.25;;;;;;;1.95;84.77;97918.78;1717192;82;27400;-73
2022/11/26 06:38:49;;;;;;;52.88;30.08;;;;;;;1.98;84.81;97916.33;1733814;81;25219;-72
2022/11/26 06:41:16;;;;;;;50.63;30.92;;;;;;;1.99;84.82;97920.67;1735597;82;25787;-72
2022/11/26 06:43:43;;;;;;;50.55;30.40;;;;;;;2.01;84.89;97919.55;1736181;82;25998;-73
2022/11/26 06:46:12;;;;;;;48.45;30.52;;;;;;;2.04;84.92;97926.41;1715327;82;25512;-72
2022/11/26 06:48:39;;;;;;;48.35;29.25;;;;;;;2.07;84.91;97928.76;1742599;82;27475;-71
2022/11/26 06:51:10;;;;;;;46.70;27.87;;;;;;;2.11;84.97;97935.48;1744839;82;25723;-72
2022/11/26 06:53:37;;;;;;;47.80;29.95;;;;;;;2.12;84.98;97932.68;1724043;82;25629;-72
2022/11/26 06:56:11;;;;;;;45.92;30.00;;;;;;;2.17;85.00;97933.59;1730940;82;25957;-72
2022/11/26 06:58:41;;;;;;;43.60;28.90;;;;;;;2.18;84.98;97930.75;1718905;82;25779;-72
2022/11/26 07:01:09;;;;;;;48.28;29.57;;;;;;;2.21;84.91;97937.62;1731479;82;28171;-72
2022/11/26 07:03:37;;;;;;;49.33;30.50;;;;;;;2.23;84.92;97935.65;1735971;82;25866;-72
2022/11/26 07:06:04;;;;;;;47.75;29.95;;;;;;;2.24;84.87;97934.67;1715230;82;25724;-71
2022/11/26 07:08:32;;;;;;;57.50;37.13;;;;;;;2.27;84.92;97935.72;1730107;82;26058;-72
2022/11/26 07:11:02;;;;;;;61.90;37.50;;;;;;;2.30;84.93;97933.22;1697033;82;25753;-70
2022/11/26 07:13:29;;;;;;;62.98;39.18;;;;;;;2.32;84.91;97944.58;1731380;82;27431;-72
2022/11/26 07:15:55;;;;;;;63.52;37.58;;;;;;;2.33;84.88;97944.92;1716632;82;25759;-71
2022/11/26 07:18:22;;;;;;;63.78;38.50;;;;;;;2.33;84.88;97943.11;1734084;82;25733;-72
2022/11/26 07:20:48;;;;;;;70.25;39.05;;;;;;;2.34;84.90;97951.94;1715252;82;25990;-74
2022/11/26 07:23:15;;;;;;;57.73;37.67;;;;;;;2.34;84.89;97950.11;1736386;82;25710;-72
2022/11/26 07:25:42;;;;;;;62.45;37.33;;;;;;;2.35;84.95;97946.47;1732320;82;27364;-72
2022/11/26 07:28:08;;;;;;;61.15;39.25;;;;;;;2.38;85.04;97956.84;1723979;82;25793;-72
2022/11/26 07:30:35;;;;;;;59.58;37.45;;;;;;;2.42;85.10;97948.88;1730644;82;25688;-75
2022/11/26 07:33:01;;;;;;;58.42;35.63;;;;;;;2.46;85.09;97948.94;1717801;82;26126;-72
2022/11/26 07:35:28;;;;;;;53.42;35.28;;;;;;;2.51;85.10;97953.84;1733260;82;25538;-71
2022/11/26 07:37:55;;;;;;;60.10;36.40;;;;;;;2.53;85.03;97947.38;1736138;82;27995;-74
2022/11/26 07:40:21;;;;;;;69.55;38.78;;;;;;;2.54;84.97;97945.03;1715079;82;25767;-73
2022/11/26 07:42:48;;;;;;;59.15;37.65;;;;;;;2.54;85.00;97947.70;1733522;82;25765;-72
2022/11/26 07:45:15;;;;;;;75.28;45.78;;;;;;;2.57;85.05;97951.90;1724019;82;26755;-72
2022/11/26 07:47:41;;;;;;;75.03;44.77;;;;;;;2.62;85.15;97955.47;1729396;82;25720;-72
2022/11/26 07:50:08;;;;;;;77.82;47.83;;;;;;;2.69;85.24;97959.20;1739799;81;26823;-72
2022/11/26 07:52:35;;;;;;;77.97;46.55;;;;;;;2.77;85.27;97953.98;1731607;82;25668;-72
2022/11/26 07:55:01;;;;;;;96.85;56.45;;;;;;;2.86;85.38;97950.41;1736180;82;25841;-74
2022/11/26 07:57:28;;;;;;;95.40;55.55;;;;;;;2.94;85.44;97953.16;1725596;82;26839;-75
2022/11/26 07:59:54;;;;;;;116.88;64.37;;;;;;;2.99;85.42;97949.56;1725411;82;25725;-72
2022/11/26 08:02:21;;;;;;;106.17;58.20;;;;;;;3.05;85.44;97955.61;1736116;82;27455;-74
2022/11/26 08:04:48;;;;;;;95.65;55.00;;;;;;;3.13;85.46;97961.05;1714825;82;25954;-72
2022/11/26 08:07:15;;;;;;;96.65;56.83;;;;;;;3.21;85.50;97966.95;1721072;82;25677;-71
2022/11/26 08:09:41;;;;;;;94.92;57.10;;;;;;;3.31;85.56;97973.55;1736092;82;25396;-72
2022/11/26 08:12:08;;;;;;;83.87;51.50;;;;;;;3.39;85.65;97969.61;1732686;82;25942;-72
2022/11/26 08:14:35;;;;;;;71.55;46.05;;;;;;;3.45;85.64;97969.85;1723924;82;27366;-72
2022/11/26 08:17:01;;;;;;;63.65;41.48;;;;;;;3.52;85.54;97976.73;1729946;82;25238;-72
2022/11/26 08:19:28;;;;;;;61.35;38.98;;;;;;;3.57;85.48;97970.45;1736047;82;25253;-72
2022/11/26 08:21:54;;;;;;;54.42;36.73;;;;;;;3.65;85.44;97965.67;1727730;82;26766;-72
2022/11/26 08:24:22;;;;;;;67.37;41.48;;;;;;;3.71;85.45;97971.25;1723367;82;25270;-72
2022/11/26 08:26:49;;;;;;;80.22;46.85;;;;;;;3.75;85.40;97975.27;1725145;82;27402;-72
2022/11/26 08:29:15;;;;;;;69.95;43.75;;;;;;;3.80;85.42;97976.98;1744865;82;25416;-72
2022/11/26 08:31:43;;;;;;;67.47;39.53;;;;;;;3.84;85.33;97971.69;1737625;82;25788;-72
2022/11/26 08:34:13;;;;;;;61.25;36.55;;;;;;;3.89;85.32;97979.21;1731834;82;26760;-75
2022/11/26 08:36:40;;;;;;;50.38;30.92;;;;;;;3.94;85.29;97975.09;1723898;82;25760;-73
2022/11/26 08:39:07;;;;;;;59.77;37.67;;;;;;;4.00;85.30;97984.30;1730224;82;27412;-71
2022/11/26 08:41:34;;;;;;;94.65;51.35;;;;;;;4.06;85.26;97985.52;1735969;82;25767;-72
2022/11/26 08:44:00;;;;;;;87.10;51.50;;;;;;;4.12;85.21;97982.21;1715180;82;25854;-72
2022/11/26 08:46:27;;;;;;;91.37;50.73;;;;;;;4.18;85.12;97984.27;1736474;82;25981;-72
2022/11/26 08:48:57;;;;;;;94.40;54.33;;;;;;;4.24;85.11;97986.30;1735592;82;25478;-73
2022/11/26 08:51:24;;;;;;;78.70;47.33;;;;;;;4.27;85.04;97990.00;1734157;82;28112;-72
2022/11/26 08:53:50;;;;;;;67.82;42.95;;;;;;;4.32;85.04;97990.38;1737113;82;25483;-72
2022/11/26 08:56:18;;;;;;;71.37;44.20;;;;;;;4.36;85.01;97998.40;1731790;82;25779;-72
2022/11/26 08:58:45;;;;;;;75.20;47.35;;;;;;;4.40;84.98;97997.09;1718715;82;25995;-71
2022/11/26 09:01:23;;;;;;;76.35;46.88;;;;;;;4.46;84.97;98001.83;1729679;82;25720;-74
2022/11/26 09:03:53;;;;;;;75.60;47.00;;;;;;;4.51;84.89;98006.18;1723914;82;27388;-72
2022/11/26 09:06:21;;;;;;;72.60;45.85;;;;;;;4.55;84.87;98002.70;1729987;82;25683;-72
2022/11/26 09:11:37;;;;;;;72.45;44.58;;;;;;;4.63;84.95;98003.57;1714892;82;26843;-73
2022/11/26 09:14:04;;;;;;;84.75;50.70;;;;;;;4.65;84.93;98009.60;1735674;82;25704;-75
2022/11/26 09:16:31;;;;;;;88.40;53.30;;;;;;;4.63;84.90;98003.57;1715194;82;27362;-72
2022/11/26 09:19:03;;;;;;;85.20;53.02;;;;;;;4.63;84.95;98006.25;1715163;82;25245;-73
2022/11/26 09:21:30;;;;;;;;;;;;;;;4.63;84.97;98008.92;1738711;82;25741;-73
2022/11/26 09:23:57;;;;;;;87.05;52.13;;;;;;;4.68;85.08;98009.30;1731269;82;26059;-72
2022/11/26 09:26:24;;;;;;;89.95;54.35;;;;;;;4.71;85.11;98012.13;1723826;82;25695;-72
2022/11/26 09:28:51;;;;;;;104.67;60.75;;;;;;;4.77;85.08;98010.66;1730911;82;27480;-71
2022/11/26 09:31:18;;;;;;;95.80;60.67;;;;;;;4.79;85.01;98009.50;1738257;81;25724;-75
2022/11/26 09:33:45;;;;;;;95.90;59.00;;;;;;;4.82;84.99;98009.69;1733383;82;25765;-72
2022/11/26 09:36:14;;;;;;;91.10;57.60;;;;;;;4.86;85.01;98009.69;1735822;82;26068;-74
2022/11/26 09:38:41;;;;;;;91.00;54.80;;;;;;;4.90;84.95;98007.88;1735296;82;25661;-73
2022/11/26 09:41:34;;;;;;;91.95;55.43;;;;;;;4.95;84.86;98018.11;1715114;82;28166;-72
2022/11/26 09:44:27;;;;;;;89.13;55.75;;;;;;;4.98;84.82;98009.73;1715042;82;25933;-75
2022/11/26 09:47:14;;;;;;;89.13;55.88;;;;;;;4.97;84.75;98014.75;1734758;82;25691;-74
2022/11/26 09:50:14;;;;;;;86.50;52.93;;;;;;;4.94;84.76;98016.43;1740370;82;26003;-73
2022/11/26 09:52:48;;;;;;;88.65;54.20;;;;;;;4.95;84.80;98016.24;1717071;82;25656;-72
2022/11/26 09:55:28;;;;;;;87.80;54.58;;;;;;;4.98;84.85;98015.09;1739095;81;27580;-73
2022/11/26 09:58:39;;;;;;;86.97;52.95;;;;;;;5.04;84.88;98011.78;1673766;85;25771;-74
2022/11/26 10:01:13;;;;;;;91.35;53.83;;;;;;;5.08;84.87;98004.59;1686559;85;25529;-73
2022/11/26 10:03:41;;;;;;;86.80;53.95;;;;;;;5.06;84.75;98005.78;1683674;85;26202;-73
2022/11/26 10:06:30;;;;;;;88.35;54.08;;;;;;;5.03;84.78;98004.25;1686645;85;25366;-72
2022/11/26 10:09:11;;;;;;;92.15;54.53;;;;;;;5.02;84.76;98007.09;1686681;85;27454;-76
2022/11/26 10:12:10;;;;;;;84.05;53.40;;;;;;;5.01;84.80;98004.91;1666743;85;25345;-75
2022/11/26 10:15:00;;;;;;;86.35;52.95;;;;;;;5.05;84.92;98006.27;1686394;85;25751;-72
2022/11/26 10:18:05;;;;;;;89.80;54.80;;;;;;;5.05;84.85;98004.94;1683088;85;26774;-73
2022/11/26 10:20:59;;;;;;;88.35;53.20;;;;;;;5.04;84.82;98011.78;1670978;85;25526;-72
2022/11/26 10:23:44;;;;;;;80.90;50.67;;;;;;;5.08;84.88;98017.13;1683228;85;27457;-74
2022/11/26 10:26:31;;;;;;;86.02;55.28;;;;;;;5.08;84.86;98013.11;1638290;87;25826;-72
2022/11/26 10:29:36;;;;;;;84.25;53.90;;;;;;;5.05;84.89;98012.13;1654146;86;25922;-72
2022/11/26 10:32:14;;;;;;;85.03;54.95;;;;;;;5.07;84.91;98018.16;1636764;87;26059;-73
2022/11/26 10:34:49;;;;;;;80.77;50.83;;;;;;;5.12;84.94;98018.49;1577890;90;25962;-73
2022/11/26 10:37:18;;;;;;;87.80;54.45;;;;;;;5.13;84.83;98018.83;1508478;93;27413;-74
2022/11/26 10:39:44;;;;;;;86.57;56.02;;;;;;;5.15;84.82;98016.84;1507758;93;26385;-73
2022/11/26 10:42:20;;;;;;;95.85;61.42;;;;;;;5.16;84.89;98017.17;1507834;93;25884;-73
2022/11/26 10:44:50;;;;;;;94.45;59.58;;;;;;;5.19;84.87;98016.86;1506032;93;26785;-73
2022/11/26 10:47:27;;;;;;;98.62;63.55;;;;;;;5.20;84.89;98019.84;1507953;93;25547;-73
2022/11/26 10:50:03;;;;;;;97.12;61.15;;;;;;;5.20;84.87;98014.49;1507690;93;27265;-73
2022/11/26 10:52:33;;;;;;;95.80;62.85;;;;;;;5.22;84.88;98012.99;1506036;94;25775;-73
2022/11/26 10:55:38;;;;;;;99.07;61.53;;;;;;;5.26;84.92;98015.70;1525898;92;25847;-72
2022/11/26 10:58:27;;;;;;;97.62;62.43;;;;;;;5.30;84.94;98016.55;1531640;92;26072;-75
2022/11/26 11:00:59;;;;;;;100.30;63.38;;;;;;;5.35;84.89;98018.22;1526360;93;25830;-75
2022/11/26 11:03:34;;;;;;;96.60;60.98;;;;;;;5.40;84.94;98019.92;1526544;93;27590;-73
2022/11/26 11:06:27;;;;;;;100.05;60.55;;;;;;;5.42;84.84;98016.58;1487434;95;25812;-73
2022/11/26 11:08:54;;;;;;;99.00;63.23;;;;;;;5.44;84.77;98023.92;1487668;96;25887;-73
2022/11/26 11:11:28;;;;;;;101.40;63.02;;;;;;;5.44;84.74;98023.92;1486953;96;26231;-73
2022/11/26 11:13:55;;;;;;;107.63;69.12;;;;;;;5.43;84.75;98020.91;1487528;96;25953;-74
2022/11/26 11:16:33;;;;;;;102.92;65.40;;;;;;;5.42;84.76;98017.08;1487580;96;27418;-73
2022/11/26 11:19:03;;;;;;;101.92;65.25;;;;;;;5.43;84.80;98012.88;1463787;97;25844;-73
2022/11/26 11:21:33;;;;;;;101.22;65.87;;;;;;;5.44;84.82;98019.91;1461207;97;25811;-72
2022/11/26 11:24:16;;;;;;;102.90;64.85;;;;;;;5.44;84.70;98017.23;1462338;95;26073;-75
2022/11/26 11:26:46;;;;;;;98.87;66.07;;;;;;;5.39;84.62;98015.56;1453943;96;25879;-73
2022/11/26 11:29:35;;;;;;;109.27;68.87;;;;;;;5.35;84.66;98018.22;1474049;95;26913;-74
2022/11/26 11:32:06;;;;;;;110.48;70.55;;;;;;;5.37;84.78;98026.09;1490243;94;25879;-73
2022/11/26 11:37:20;;;;;;;109.05;71.37;;;;;;;5.35;84.77;98020.90;1495694;94;26026;-73
2022/11/26 11:40:10;;;;;;;112.03;72.00;;;;;;;5.36;84.75;98020.40;1494793;94;26856;-73
2022/11/26 11:42:39;;;;;;;119.72;76.35;;;;;;;5.37;84.86;98022.08;1505495;93;27480;-74
2022/11/26 11:45:16;;;;;;;128.15;80.95;;;;;;;5.37;84.93;98018.90;1505754;93;25799;-74
2022/11/26 11:47:47;;;;;;;130.45;81.70;;;;;;;5.39;85.01;98018.24;1505309;93;25878;-75